sensor_id;sensor_type;location;lat;lon;timestamp;P1;durP1;ratioP1;P2;durP2;ratioP2
41514;SDS011;27247;48.020;16.720;2023-11-21T00:03:59;12.90;;;3.25;;
41514;SDS011;27247;48.020;16.720;2023-11-21T00:08:11;9.90;;;3.00;;
41514;SDS011;27247;48.020;16.720;2023-11-21T00:12:21;24.77;;;3.25;;
41514;SDS011;27247;48.020;16.720;2023-11-21T00:16:32;11.17;;;3.73;;
41514;SDS011;27247;48.020;16.720;2023-11-21T00:20:42;9.00;;;2.90;;
41514;SDS011;27247;48.020;16.720;2023-11-21T00:24:52;6.03;;;2.47;;
41514;SDS011;27247;48.020;16.720;2023-11-21T00:29:03;8.40;;;4.03;;
41514;SDS011;27247;48.020;16.720;2023-11-21T00:33:13;9.52;;;4.30;;
41514;SDS011;27247;48.020;16.720;2023-11-21T00:37:23;10.05;;;3.63;;
41514;SDS011;27247;48.020;16.720;2023-11-21T00:41:34;4.18;;;2.47;;
41514;SDS011;27247;48.020;16.720;2023-11-21T00:45:46;9.25;;;3.63;;
41514;SDS011;27247;48.020;16.720;2023-11-21T00:49:59;4.93;;;2.30;;
41514;SDS011;27247;48.020;16.720;2023-11-21T00:54:09;7.63;;;2.30;;
41514;SDS011;27247;48.020;16.720;2023-11-21T00:58:19;6.43;;;2.10;;
41514;SDS011;27247;48.020;16.720;2023-11-21T01:02:30;8.73;;;2.20;;
41514;SDS011;27247;48.020;16.720;2023-11-21T01:06:40;9.47;;;2.23;;
41514;SDS011;27247;48.020;16.720;2023-11-21T01:10:50;8.80;;;2.20;;
41514;SDS011;27247;48.020;16.720;2023-11-21T01:15:00;4.83;;;1.40;;
41514;SDS011;27247;48.020;16.720;2023-11-21T01:19:11;6.63;;;2.17;;
41514;SDS011;27247;48.020;16.720;2023-11-21T01:23:21;8.80;;;2.17;;
41514;SDS011;27247;48.020;16.720;2023-11-21T01:27:32;7.13;;;1.58;;
41514;SDS011;27247;48.020;16.720;2023-11-21T01:31:43;5.18;;;1.70;;
41514;SDS011;27247;48.020;16.720;2023-11-21T01:35:53;6.10;;;1.50;;
41514;SDS011;27247;48.020;16.720;2023-11-21T01:40:04;6.93;;;1.85;;
41514;SDS011;27247;48.020;16.720;2023-11-21T01:44:20;5.28;;;1.92;;
41514;SDS011;27247;48.020;16.720;2023-11-21T01:48:30;6.22;;;1.60;;
41514;SDS011;27247;48.020;16.720;2023-11-21T01:52:41;9.38;;;2.53;;
41514;SDS011;27247;48.020;16.720;2023-11-21T01:56:53;5.32;;;2.33;;
41514;SDS011;27247;48.020;16.720;2023-11-21T02:01:04;5.20;;;1.23;;
41514;SDS011;27247;48.020;16.720;2023-11-21T02:05:15;11.00;;;2.28;;
41514;SDS011;27247;48.020;16.720;2023-11-21T02:09:31;8.20;;;1.75;;
41514;SDS011;27247;48.020;16.720;2023-11-21T02:13:43;10.00;;;2.30;;
41514;SDS011;27247;48.020;16.720;2023-11-21T02:17:53;5.45;;;1.48;;
41514;SDS011;27247;48.020;16.720;2023-11-21T02:22:04;3.28;;;1.50;;
41514;SDS011;27247;48.020;16.720;2023-11-21T02:26:16;5.75;;;2.00;;
41514;SDS011;27247;48.020;16.720;2023-11-21T02:30:27;5.95;;;1.70;;
41514;SDS011;27247;48.020;16.720;2023-11-21T02:34:38;4.82;;;1.73;;
41514;SDS011;27247;48.020;16.720;2023-11-21T02:38:49;3.80;;;1.83;;
41514;SDS011;27247;48.020;16.720;2023-11-21T02:42:59;5.60;;;2.80;;
41514;SDS011;27247;48.020;16.720;2023-11-21T02:47:10;5.00;;;2.00;;
41514;SDS011;27247;48.020;16.720;2023-11-21T02:51:20;10.82;;;2.72;;
41514;SDS011;27247;48.020;16.720;2023-11-21T02:55:30;5.13;;;2.10;;
41514;SDS011;27247;48.020;16.720;2023-11-21T02:59:44;4.93;;;3.45;;
41514;SDS011;27247;48.020;16.720;2023-11-21T03:03:54;4.90;;;1.58;;
41514;SDS011;27247;48.020;16.720;2023-11-21T03:08:05;7.53;;;1.73;;
41514;SDS011;27247;48.020;16.720;2023-11-21T03:12:16;11.45;;;2.97;;
41514;SDS011;27247;48.020;16.720;2023-11-21T03:16:26;3.47;;;1.85;;
41514;SDS011;27247;48.020;16.720;2023-11-21T03:20:36;6.15;;;1.92;;
41514;SDS011;27247;48.020;16.720;2023-11-21T03:24:47;3.57;;;2.10;;
41514;SDS011;27247;48.020;16.720;2023-11-21T03:28:57;8.93;;;2.57;;
41514;SDS011;27247;48.020;16.720;2023-11-21T03:33:07;7.27;;;1.77;;
41514;SDS011;27247;48.020;16.720;2023-11-21T03:37:17;6.68;;;1.95;;
41514;SDS011;27247;48.020;16.720;2023-11-21T03:41:30;6.55;;;1.85;;
41514;SDS011;27247;48.020;16.720;2023-11-21T03:45:41;12.50;;;2.50;;
41514;SDS011;27247;48.020;16.720;2023-11-21T03:49:51;8.23;;;2.20;;
41514;SDS011;27247;48.020;16.720;2023-11-21T03:54:01;5.50;;;2.13;;
41514;SDS011;27247;48.020;16.720;2023-11-21T03:58:12;6.22;;;2.55;;
41514;SDS011;27247;48.020;16.720;2023-11-21T04:02:22;5.05;;;2.15;;
41514;SDS011;27247;48.020;16.720;2023-11-21T04:06:32;9.50;;;2.17;;
41514;SDS011;27247;48.020;16.720;2023-11-21T04:10:43;4.93;;;2.13;;
41514;SDS011;27247;48.020;16.720;2023-11-21T04:14:53;5.33;;;2.00;;
41514;SDS011;27247;48.020;16.720;2023-11-21T04:19:03;9.10;;;2.50;;
41514;SDS011;27247;48.020;16.720;2023-11-21T04:23:14;10.20;;;2.47;;
41514;SDS011;27247;48.020;16.720;2023-11-21T04:27:25;7.47;;;2.42;;
41514;SDS011;27247;48.020;16.720;2023-11-21T04:31:35;12.10;;;2.63;;
41514;SDS011;27247;48.020;16.720;2023-11-21T04:35:45;8.82;;;1.98;;
41514;SDS011;27247;48.020;16.720;2023-11-21T04:39:56;7.40;;;2.00;;
41514;SDS011;27247;48.020;16.720;2023-11-21T04:44:06;6.13;;;1.93;;
41514;SDS011;27247;48.020;16.720;2023-11-21T04:48:16;27.95;;;11.00;;
41514;SDS011;27247;48.020;16.720;2023-11-21T04:52:27;18.10;;;8.17;;
41514;SDS011;27247;48.020;16.720;2023-11-21T04:56:37;16.38;;;5.50;;
41514;SDS011;27247;48.020;16.720;2023-11-21T05:00:47;16.07;;;4.33;;
41514;SDS011;27247;48.020;16.720;2023-11-21T05:04:58;13.70;;;4.22;;
41514;SDS011;27247;48.020;16.720;2023-11-21T05:09:08;5.10;;;2.83;;
41514;SDS011;27247;48.020;16.720;2023-11-21T05:13:22;6.00;;;2.45;;
41514;SDS011;27247;48.020;16.720;2023-11-21T05:17:37;7.43;;;2.40;;
41514;SDS011;27247;48.020;16.720;2023-11-21T05:21:51;5.60;;;2.13;;
41514;SDS011;27247;48.020;16.720;2023-11-21T05:26:01;10.00;;;2.33;;
41514;SDS011;27247;48.020;16.720;2023-11-21T05:30:12;10.73;;;4.03;;
41514;SDS011;27247;48.020;16.720;2023-11-21T05:34:24;5.82;;;2.90;;
41514;SDS011;27247;48.020;16.720;2023-11-21T05:38:35;8.45;;;3.05;;
41514;SDS011;27247;48.020;16.720;2023-11-21T05:42:46;11.23;;;3.78;;
41514;SDS011;27247;48.020;16.720;2023-11-21T05:46:56;10.38;;;5.32;;
41514;SDS011;27247;48.020;16.720;2023-11-21T05:51:08;17.70;;;9.45;;
41514;SDS011;27247;48.020;16.720;2023-11-21T05:55:19;14.03;;;8.00;;
41514;SDS011;27247;48.020;16.720;2023-11-21T05:59:31;5.40;;;3.15;;
41514;SDS011;27247;48.020;16.720;2023-11-21T06:03:42;8.10;;;2.77;;
41514;SDS011;27247;48.020;16.720;2023-11-21T06:07:53;8.45;;;3.03;;
41514;SDS011;27247;48.020;16.720;2023-11-21T06:12:08;5.18;;;2.65;;
41514;SDS011;27247;48.020;16.720;2023-11-21T06:16:19;9.47;;;3.17;;
41514;SDS011;27247;48.020;16.720;2023-11-21T06:20:29;7.97;;;4.50;;
41514;SDS011;27247;48.020;16.720;2023-11-21T06:24:39;6.97;;;3.88;;
41514;SDS011;27247;48.020;16.720;2023-11-21T06:28:52;9.20;;;3.63;;
41514;SDS011;27247;48.020;16.720;2023-11-21T06:33:03;6.30;;;3.75;;
41514;SDS011;27247;48.020;16.720;2023-11-21T06:37:14;9.98;;;4.18;;
41514;SDS011;27247;48.020;16.720;2023-11-21T06:41:24;10.47;;;5.97;;
41514;SDS011;27247;48.020;16.720;2023-11-21T06:45:34;18.05;;;6.15;;
41514;SDS011;27247;48.020;16.720;2023-11-21T06:49:45;14.07;;;5.25;;
41514;SDS011;27247;48.020;16.720;2023-11-21T06:53:57;14.48;;;5.65;;
41514;SDS011;27247;48.020;16.720;2023-11-21T06:58:08;13.85;;;6.75;;
41514;SDS011;27247;48.020;16.720;2023-11-21T07:02:18;20.50;;;5.97;;
41514;SDS011;27247;48.020;16.720;2023-11-21T07:06:29;12.97;;;6.30;;
41514;SDS011;27247;48.020;16.720;2023-11-21T07:10:39;11.50;;;5.50;;
41514;SDS011;27247;48.020;16.720;2023-11-21T07:14:49;13.20;;;5.53;;
41514;SDS011;27247;48.020;16.720;2023-11-21T07:18:59;16.80;;;5.70;;
41514;SDS011;27247;48.020;16.720;2023-11-21T07:23:10;10.43;;;5.65;;
41514;SDS011;27247;48.020;16.720;2023-11-21T07:27:21;14.30;;;6.05;;
41514;SDS011;27247;48.020;16.720;2023-11-21T07:31:31;20.57;;;6.37;;
41514;SDS011;27247;48.020;16.720;2023-11-21T07:35:44;8.65;;;4.95;;
41514;SDS011;27247;48.020;16.720;2023-11-21T07:39:54;14.93;;;6.17;;
41514;SDS011;27247;48.020;16.720;2023-11-21T07:44:07;14.80;;;6.93;;
41514;SDS011;27247;48.020;16.720;2023-11-21T07:48:17;12.43;;;5.28;;
41514;SDS011;27247;48.020;16.720;2023-11-21T07:52:28;10.30;;;4.13;;
41514;SDS011;27247;48.020;16.720;2023-11-21T07:56:38;8.40;;;3.10;;
41514;SDS011;27247;48.020;16.720;2023-11-21T08:00:49;11.30;;;4.27;;
41514;SDS011;27247;48.020;16.720;2023-11-21T08:05:00;8.10;;;3.92;;
41514;SDS011;27247;48.020;16.720;2023-11-21T08:09:10;14.70;;;5.10;;
41514;SDS011;27247;48.020;16.720;2023-11-21T08:13:23;9.82;;;4.43;;
41514;SDS011;27247;48.020;16.720;2023-11-21T08:17:34;10.20;;;4.00;;
41514;SDS011;27247;48.020;16.720;2023-11-21T08:21:45;8.80;;;4.05;;
41514;SDS011;27247;48.020;16.720;2023-11-21T08:25:55;11.45;;;3.60;;
41514;SDS011;27247;48.020;16.720;2023-11-21T08:30:06;13.87;;;4.40;;
41514;SDS011;27247;48.020;16.720;2023-11-21T08:34:17;15.70;;;9.52;;
41514;SDS011;27247;48.020;16.720;2023-11-21T08:38:28;16.98;;;8.15;;
41514;SDS011;27247;48.020;16.720;2023-11-21T08:42:39;18.25;;;5.72;;
41514;SDS011;27247;48.020;16.720;2023-11-21T08:46:49;15.90;;;5.83;;
41514;SDS011;27247;48.020;16.720;2023-11-21T08:51:00;16.88;;;5.65;;
41514;SDS011;27247;48.020;16.720;2023-11-21T08:55:10;13.57;;;4.68;;
41514;SDS011;27247;48.020;16.720;2023-11-21T08:59:24;10.82;;;4.13;;
41514;SDS011;27247;48.020;16.720;2023-11-21T09:03:34;14.80;;;5.07;;
41514;SDS011;27247;48.020;16.720;2023-11-21T09:07:45;12.48;;;4.55;;
41514;SDS011;27247;48.020;16.720;2023-11-21T09:11:56;13.90;;;4.20;;
41514;SDS011;27247;48.020;16.720;2023-11-21T09:16:06;12.68;;;4.78;;
41514;SDS011;27247;48.020;16.720;2023-11-21T09:20:17;16.63;;;5.40;;
41514;SDS011;27247;48.020;16.720;2023-11-21T09:24:27;21.40;;;8.70;;
41514;SDS011;27247;48.020;16.720;2023-11-21T09:28:37;17.77;;;8.77;;
41514;SDS011;27247;48.020;16.720;2023-11-21T09:32:49;15.15;;;5.35;;
41514;SDS011;27247;48.020;16.720;2023-11-21T09:37:00;11.35;;;4.50;;
41514;SDS011;27247;48.020;16.720;2023-11-21T09:41:21;15.07;;;5.30;;
41514;SDS011;27247;48.020;16.720;2023-11-21T09:45:46;19.38;;;5.35;;
41514;SDS011;27247;48.020;16.720;2023-11-21T09:49:57;20.73;;;5.72;;
41514;SDS011;27247;48.020;16.720;2023-11-21T09:54:11;20.63;;;6.63;;
41514;SDS011;27247;48.020;16.720;2023-11-21T09:58:25;18.35;;;6.18;;
41514;SDS011;27247;48.020;16.720;2023-11-21T10:02:37;13.48;;;5.10;;
41514;SDS011;27247;48.020;16.720;2023-11-21T10:06:50;14.60;;;4.82;;
41514;SDS011;27247;48.020;16.720;2023-11-21T10:11:03;11.40;;;4.47;;
41514;SDS011;27247;48.020;16.720;2023-11-21T10:15:16;12.15;;;4.47;;
41514;SDS011;27247;48.020;16.720;2023-11-21T10:19:27;17.45;;;4.72;;
41514;SDS011;27247;48.020;16.720;2023-11-21T10:23:38;15.85;;;5.15;;
41514;SDS011;27247;48.020;16.720;2023-11-21T10:27:49;9.40;;;3.95;;
41514;SDS011;27247;48.020;16.720;2023-11-21T10:32:02;18.60;;;4.25;;
41514;SDS011;27247;48.020;16.720;2023-11-21T10:36:13;12.93;;;3.90;;
41514;SDS011;27247;48.020;16.720;2023-11-21T10:40:34;11.13;;;3.30;;
41514;SDS011;27247;48.020;16.720;2023-11-21T10:44:49;11.07;;;3.63;;
41514;SDS011;27247;48.020;16.720;2023-11-21T10:48:59;11.30;;;3.40;;
41514;SDS011;27247;48.020;16.720;2023-11-21T10:53:10;13.63;;;3.80;;
41514;SDS011;27247;48.020;16.720;2023-11-21T10:57:22;10.63;;;3.10;;
41514;SDS011;27247;48.020;16.720;2023-11-21T11:01:33;7.00;;;3.72;;
41514;SDS011;27247;48.020;16.720;2023-11-21T11:05:44;10.98;;;3.90;;
41514;SDS011;27247;48.020;16.720;2023-11-21T11:10:01;5.72;;;2.55;;
41514;SDS011;27247;48.020;16.720;2023-11-21T11:14:15;9.10;;;2.67;;
41514;SDS011;27247;48.020;16.720;2023-11-21T11:18:27;4.93;;;2.35;;
41514;SDS011;27247;48.020;16.720;2023-11-21T11:22:41;10.50;;;3.53;;
41514;SDS011;27247;48.020;16.720;2023-11-21T11:27:10;8.98;;;2.55;;
41514;SDS011;27247;48.020;16.720;2023-11-21T11:31:36;9.35;;;2.65;;
41514;SDS011;27247;48.020;16.720;2023-11-21T11:40:12;8.10;;;2.67;;
41514;SDS011;27247;48.020;16.720;2023-11-21T11:49:04;7.35;;;2.58;;
41514;SDS011;27247;48.020;16.720;2023-11-21T11:53:15;6.63;;;2.28;;
41514;SDS011;27247;48.020;16.720;2023-11-21T11:57:26;3.97;;;1.92;;
41514;SDS011;27247;48.020;16.720;2023-11-21T12:01:39;6.75;;;3.03;;
41514;SDS011;27247;48.020;16.720;2023-11-21T12:05:56;5.82;;;2.75;;
41514;SDS011;27247;48.020;16.720;2023-11-21T12:10:10;8.35;;;3.65;;
41514;SDS011;27247;48.020;16.720;2023-11-21T12:14:22;9.13;;;4.55;;
41514;SDS011;27247;48.020;16.720;2023-11-21T12:18:33;5.35;;;2.25;;
41514;SDS011;27247;48.020;16.720;2023-11-21T12:22:44;13.57;;;2.50;;
41514;SDS011;27247;48.020;16.720;2023-11-21T12:26:57;5.88;;;2.50;;
41514;SDS011;27247;48.020;16.720;2023-11-21T12:31:08;6.97;;;2.28;;
41514;SDS011;27247;48.020;16.720;2023-11-21T12:35:19;5.93;;;2.03;;
41514;SDS011;27247;48.020;16.720;2023-11-21T12:39:31;10.30;;;2.53;;
41514;SDS011;27247;48.020;16.720;2023-11-21T12:43:42;6.32;;;2.38;;
41514;SDS011;27247;48.020;16.720;2023-11-21T12:52:10;4.95;;;1.70;;
41514;SDS011;27247;48.020;16.720;2023-11-21T12:56:21;4.72;;;1.30;;
41514;SDS011;27247;48.020;16.720;2023-11-21T13:00:55;6.32;;;2.15;;
41514;SDS011;27247;48.020;16.720;2023-11-21T13:05:07;2.17;;;1.48;;
41514;SDS011;27247;48.020;16.720;2023-11-21T13:09:22;3.63;;;1.73;;
41514;SDS011;27247;48.020;16.720;2023-11-21T13:13:33;3.23;;;0.90;;
41514;SDS011;27247;48.020;16.720;2023-11-21T13:17:43;4.23;;;1.03;;
41514;SDS011;27247;48.020;16.720;2023-11-21T13:21:55;5.57;;;1.23;;
41514;SDS011;27247;48.020;16.720;2023-11-21T13:26:05;2.47;;;1.20;;
41514;SDS011;27247;48.020;16.720;2023-11-21T13:30:16;8.38;;;1.40;;
41514;SDS011;27247;48.020;16.720;2023-11-21T13:34:27;3.75;;;0.90;;
41514;SDS011;27247;48.020;16.720;2023-11-21T13:38:37;4.43;;;1.20;;
41514;SDS011;27247;48.020;16.720;2023-11-21T13:42:55;5.80;;;1.40;;
41514;SDS011;27247;48.020;16.720;2023-11-21T13:47:09;5.22;;;1.30;;
41514;SDS011;27247;48.020;16.720;2023-11-21T13:51:19;2.30;;;1.35;;
41514;SDS011;27247;48.020;16.720;2023-11-21T13:55:34;5.55;;;1.73;;
41514;SDS011;27247;48.020;16.720;2023-11-21T13:59:45;3.60;;;1.40;;
41514;SDS011;27247;48.020;16.720;2023-11-21T14:03:59;5.57;;;1.38;;
41514;SDS011;27247;48.020;16.720;2023-11-21T14:08:26;3.38;;;1.50;;
41514;SDS011;27247;48.020;16.720;2023-11-21T14:12:38;3.85;;;1.35;;
41514;SDS011;27247;48.020;16.720;2023-11-21T14:16:51;6.25;;;1.88;;
41514;SDS011;27247;48.020;16.720;2023-11-21T14:21:02;3.22;;;2.00;;
41514;SDS011;27247;48.020;16.720;2023-11-21T14:25:12;3.38;;;1.40;;
41514;SDS011;27247;48.020;16.720;2023-11-21T14:29:24;7.70;;;2.10;;
41514;SDS011;27247;48.020;16.720;2023-11-21T14:33:34;5.72;;;1.80;;
41514;SDS011;27247;48.020;16.720;2023-11-21T14:37:45;13.30;;;2.43;;
41514;SDS011;27247;48.020;16.720;2023-11-21T14:41:56;6.78;;;2.20;;
41514;SDS011;27247;48.020;16.720;2023-11-21T14:46:08;6.20;;;1.90;;
41514;SDS011;27247;48.020;16.720;2023-11-21T14:50:20;3.08;;;1.85;;
41514;SDS011;27247;48.020;16.720;2023-11-21T14:54:50;8.75;;;3.60;;
41514;SDS011;27247;48.020;16.720;2023-11-21T14:59:10;5.10;;;1.73;;
41514;SDS011;27247;48.020;16.720;2023-11-21T15:03:29;4.70;;;1.88;;
41514;SDS011;27247;48.020;16.720;2023-11-21T15:07:42;6.97;;;3.95;;
41514;SDS011;27247;48.020;16.720;2023-11-21T15:11:54;13.52;;;7.07;;
41514;SDS011;27247;48.020;16.720;2023-11-21T15:16:10;4.07;;;2.65;;
41514;SDS011;27247;48.020;16.720;2023-11-21T15:20:22;5.85;;;2.22;;
41514;SDS011;27247;48.020;16.720;2023-11-21T15:24:32;9.07;;;3.30;;
41514;SDS011;27247;48.020;16.720;2023-11-21T15:28:43;10.17;;;5.03;;
41514;SDS011;27247;48.020;16.720;2023-11-21T15:32:53;10.48;;;4.78;;
41514;SDS011;27247;48.020;16.720;2023-11-21T15:37:04;11.03;;;6.43;;
41514;SDS011;27247;48.020;16.720;2023-11-21T15:41:17;12.05;;;4.57;;
41514;SDS011;27247;48.020;16.720;2023-11-21T15:45:28;5.33;;;2.20;;
41514;SDS011;27247;48.020;16.720;2023-11-21T15:49:38;5.95;;;2.08;;
41514;SDS011;27247;48.020;16.720;2023-11-21T15:53:49;5.55;;;2.03;;
41514;SDS011;27247;48.020;16.720;2023-11-21T15:57:59;8.23;;;2.88;;
41514;SDS011;27247;48.020;16.720;2023-11-21T16:02:13;9.20;;;5.18;;
41514;SDS011;27247;48.020;16.720;2023-11-21T16:06:26;7.20;;;4.63;;
41514;SDS011;27247;48.020;16.720;2023-11-21T16:10:37;13.52;;;6.03;;
41514;SDS011;27247;48.020;16.720;2023-11-21T16:14:47;8.40;;;3.90;;
41514;SDS011;27247;48.020;16.720;2023-11-21T16:18:59;9.88;;;5.65;;
41514;SDS011;27247;48.020;16.720;2023-11-21T16:23:09;7.33;;;3.53;;
41514;SDS011;27247;48.020;16.720;2023-11-21T16:27:20;5.63;;;3.10;;
41514;SDS011;27247;48.020;16.720;2023-11-21T16:31:30;9.93;;;5.77;;
41514;SDS011;27247;48.020;16.720;2023-11-21T16:35:42;10.82;;;7.60;;
41514;SDS011;27247;48.020;16.720;2023-11-21T16:39:53;22.52;;;12.43;;
41514;SDS011;27247;48.020;16.720;2023-11-21T16:44:04;28.50;;;16.77;;
41514;SDS011;27247;48.020;16.720;2023-11-21T16:48:15;27.88;;;16.88;;
41514;SDS011;27247;48.020;16.720;2023-11-21T16:52:25;27.50;;;15.03;;
41514;SDS011;27247;48.020;16.720;2023-11-21T16:56:36;25.17;;;12.57;;
41514;SDS011;27247;48.020;16.720;2023-11-21T17:00:47;18.27;;;11.70;;
41514;SDS011;27247;48.020;16.720;2023-11-21T17:04:57;16.52;;;10.07;;
41514;SDS011;27247;48.020;16.720;2023-11-21T17:09:08;17.67;;;10.35;;
41514;SDS011;27247;48.020;16.720;2023-11-21T17:13:22;27.15;;;9.93;;
41514;SDS011;27247;48.020;16.720;2023-11-21T17:17:32;9.00;;;5.03;;
41514;SDS011;27247;48.020;16.720;2023-11-21T17:21:43;7.45;;;4.68;;
41514;SDS011;27247;48.020;16.720;2023-11-21T17:25:55;15.10;;;5.72;;
41514;SDS011;27247;48.020;16.720;2023-11-21T17:30:06;11.15;;;5.43;;
41514;SDS011;27247;48.020;16.720;2023-11-21T17:34:17;13.07;;;5.40;;
41514;SDS011;27247;48.020;16.720;2023-11-21T17:38:29;12.65;;;7.35;;
41514;SDS011;27247;48.020;16.720;2023-11-21T17:42:40;16.63;;;9.93;;
41514;SDS011;27247;48.020;16.720;2023-11-21T17:46:51;26.23;;;13.98;;
41514;SDS011;27247;48.020;16.720;2023-11-21T17:51:01;28.70;;;12.43;;
41514;SDS011;27247;48.020;16.720;2023-11-21T17:55:13;16.45;;;8.05;;
41514;SDS011;27247;48.020;16.720;2023-11-21T17:59:24;13.15;;;6.07;;
41514;SDS011;27247;48.020;16.720;2023-11-21T18:03:38;15.05;;;9.45;;
41514;SDS011;27247;48.020;16.720;2023-11-21T18:07:51;19.50;;;12.23;;
41514;SDS011;27247;48.020;16.720;2023-11-21T18:12:01;22.75;;;12.60;;
41514;SDS011;27247;48.020;16.720;2023-11-21T18:16:13;18.65;;;10.80;;
41514;SDS011;27247;48.020;16.720;2023-11-21T18:20:24;14.52;;;9.98;;
41514;SDS011;27247;48.020;16.720;2023-11-21T18:24:34;17.15;;;9.55;;
41514;SDS011;27247;48.020;16.720;2023-11-21T18:28:46;17.88;;;10.25;;
41514;SDS011;27247;48.020;16.720;2023-11-21T18:32:56;16.63;;;9.70;;
41514;SDS011;27247;48.020;16.720;2023-11-21T18:37:07;20.25;;;10.50;;
41514;SDS011;27247;48.020;16.720;2023-11-21T18:41:20;25.20;;;10.73;;
41514;SDS011;27247;48.020;16.720;2023-11-21T18:45:32;19.70;;;11.48;;
41514;SDS011;27247;48.020;16.720;2023-11-21T18:49:44;17.42;;;9.45;;
41514;SDS011;27247;48.020;16.720;2023-11-21T18:53:56;18.02;;;10.07;;
41514;SDS011;27247;48.020;16.720;2023-11-21T18:58:06;16.17;;;9.02;;
41514;SDS011;27247;48.020;16.720;2023-11-21T19:02:16;30.65;;;12.55;;
41514;SDS011;27247;48.020;16.720;2023-11-21T19:06:27;21.40;;;9.73;;
41514;SDS011;27247;48.020;16.720;2023-11-21T19:10:39;14.55;;;10.45;;
41514;SDS011;27247;48.020;16.720;2023-11-21T19:14:50;13.23;;;8.15;;
41514;SDS011;27247;48.020;16.720;2023-11-21T19:19:01;17.35;;;7.80;;
41514;SDS011;27247;48.020;16.720;2023-11-21T19:23:12;18.10;;;8.73;;
41514;SDS011;27247;48.020;16.720;2023-11-21T19:27:23;16.27;;;9.25;;
41514;SDS011;27247;48.020;16.720;2023-11-21T19:31:33;15.30;;;9.88;;
41514;SDS011;27247;48.020;16.720;2023-11-21T19:35:44;15.88;;;9.02;;
41514;SDS011;27247;48.020;16.720;2023-11-21T19:39:55;13.40;;;8.73;;
41514;SDS011;27247;48.020;16.720;2023-11-21T19:44:06;13.63;;;8.20;;
41514;SDS011;27247;48.020;16.720;2023-11-21T19:48:16;13.70;;;8.57;;
41514;SDS011;27247;48.020;16.720;2023-11-21T19:52:29;12.00;;;8.18;;
41514;SDS011;27247;48.020;16.720;2023-11-21T19:56:39;14.07;;;9.00;;
41514;SDS011;27247;48.020;16.720;2023-11-21T20:00:51;11.65;;;6.55;;
41514;SDS011;27247;48.020;16.720;2023-11-21T20:05:01;11.48;;;7.82;;
41514;SDS011;27247;48.020;16.720;2023-11-21T20:09:11;12.27;;;7.80;;
41514;SDS011;27247;48.020;16.720;2023-11-21T20:13:22;13.25;;;7.97;;
41514;SDS011;27247;48.020;16.720;2023-11-21T20:17:32;17.85;;;8.23;;
41514;SDS011;27247;48.020;16.720;2023-11-21T20:21:42;14.23;;;7.68;;
41514;SDS011;27247;48.020;16.720;2023-11-21T20:25:53;13.25;;;7.53;;
41514;SDS011;27247;48.020;16.720;2023-11-21T20:30:07;10.23;;;5.93;;
41514;SDS011;27247;48.020;16.720;2023-11-21T20:34:18;7.38;;;5.22;;
41514;SDS011;27247;48.020;16.720;2023-11-21T20:38:29;10.90;;;6.90;;
41514;SDS011;27247;48.020;16.720;2023-11-21T20:42:40;10.32;;;6.68;;
41514;SDS011;27247;48.020;16.720;2023-11-21T20:46:53;10.65;;;6.50;;
41514;SDS011;27247;48.020;16.720;2023-11-21T20:51:03;11.57;;;7.03;;
41514;SDS011;27247;48.020;16.720;2023-11-21T20:55:14;10.32;;;6.40;;
41514;SDS011;27247;48.020;16.720;2023-11-21T20:59:24;9.68;;;5.68;;
41514;SDS011;27247;48.020;16.720;2023-11-21T21:03:35;9.87;;;5.93;;
41514;SDS011;27247;48.020;16.720;2023-11-21T21:07:45;8.98;;;5.47;;
41514;SDS011;27247;48.020;16.720;2023-11-21T21:11:55;18.13;;;9.40;;
41514;SDS011;27247;48.020;16.720;2023-11-21T21:16:07;11.93;;;6.45;;
41514;SDS011;27247;48.020;16.720;2023-11-21T21:20:17;12.97;;;7.50;;
41514;SDS011;27247;48.020;16.720;2023-11-21T21:24:28;30.17;;;14.38;;
41514;SDS011;27247;48.020;16.720;2023-11-21T21:28:38;12.05;;;5.82;;
41514;SDS011;27247;48.020;16.720;2023-11-21T21:32:50;7.05;;;4.57;;
41514;SDS011;27247;48.020;16.720;2023-11-21T21:37:01;13.65;;;7.72;;
41514;SDS011;27247;48.020;16.720;2023-11-21T21:41:11;13.53;;;6.27;;
41514;SDS011;27247;48.020;16.720;2023-11-21T21:45:21;9.27;;;6.18;;
41514;SDS011;27247;48.020;16.720;2023-11-21T21:49:32;9.82;;;6.05;;
41514;SDS011;27247;48.020;16.720;2023-11-21T21:53:43;11.60;;;6.13;;
41514;SDS011;27247;48.020;16.720;2023-11-21T21:57:54;27.52;;;11.85;;
41514;SDS011;27247;48.020;16.720;2023-11-21T22:02:04;41.40;;;15.80;;
41514;SDS011;27247;48.020;16.720;2023-11-21T22:06:15;23.75;;;9.20;;
41514;SDS011;27247;48.020;16.720;2023-11-21T22:10:26;25.02;;;9.10;;
41514;SDS011;27247;48.020;16.720;2023-11-21T22:14:42;11.63;;;5.93;;
41514;SDS011;27247;48.020;16.720;2023-11-21T22:18:53;9.55;;;5.05;;
41514;SDS011;27247;48.020;16.720;2023-11-21T22:23:04;9.05;;;5.80;;
41514;SDS011;27247;48.020;16.720;2023-11-21T22:27:15;10.38;;;5.50;;
41514;SDS011;27247;48.020;16.720;2023-11-21T22:31:25;10.87;;;5.50;;
41514;SDS011;27247;48.020;16.720;2023-11-21T22:35:35;7.30;;;5.00;;
41514;SDS011;27247;48.020;16.720;2023-11-21T22:39:48;14.57;;;7.68;;
41514;SDS011;27247;48.020;16.720;2023-11-21T22:43:58;8.77;;;5.73;;
41514;SDS011;27247;48.020;16.720;2023-11-21T22:48:09;8.43;;;5.63;;
41514;SDS011;27247;48.020;16.720;2023-11-21T22:52:20;11.23;;;5.50;;
41514;SDS011;27247;48.020;16.720;2023-11-21T22:56:31;8.43;;;4.93;;
41514;SDS011;27247;48.020;16.720;2023-11-21T23:00:42;13.13;;;5.80;;
41514;SDS011;27247;48.020;16.720;2023-11-21T23:04:54;11.98;;;6.72;;
41514;SDS011;27247;48.020;16.720;2023-11-21T23:09:05;13.98;;;7.32;;
41514;SDS011;27247;48.020;16.720;2023-11-21T23:13:15;11.32;;;6.13;;
41514;SDS011;27247;48.020;16.720;2023-11-21T23:17:28;12.38;;;6.50;;
41514;SDS011;27247;48.020;16.720;2023-11-21T23:21:40;11.60;;;7.13;;
41514;SDS011;27247;48.020;16.720;2023-11-21T23:25:51;10.43;;;6.65;;
41514;SDS011;27247;48.020;16.720;2023-11-21T23:30:01;10.97;;;6.70;;
41514;SDS011;27247;48.020;16.720;2023-11-21T23:34:12;9.57;;;6.43;;
41514;SDS011;27247;48.020;16.720;2023-11-21T23:38:22;16.02;;;7.20;;
41514;SDS011;27247;48.020;16.720;2023-11-21T23:42:33;14.88;;;8.43;;
41514;SDS011;27247;48.020;16.720;2023-11-21T23:46:44;13.57;;;7.65;;
41514;SDS011;27247;48.020;16.720;2023-11-21T23:50:55;17.52;;;7.47;;
41514;SDS011;27247;48.020;16.720;2023-11-21T23:55:06;20.15;;;10.80;;
41514;SDS011;27247;48.020;16.720;2023-11-21T23:59:18;18.73;;;10.18;;
